Terminal Aerodrome Forecast
Issued by NWS

Home | Current Version | Previous Version | Text Only | Print | Product List | Glossary On
Versions: 1 2 3 4 5 6 7 8 9 10 11 12 13 14 15 16 17 18 19 20 21 22 23 24 25 26 27 28 29
000
FTUS41 KBOX 300541
TAFFMH
TAF
KFMH 300541Z 3006/3106 VRB03KT P6SM OVC070
     FM300800 17005KT 6SM -SN OVC020
     FM301100 16006KT 3SM -RASN OVC015
     FM301900 22006KT 2SM -RASN OVC008
     FM302100 32008KT P6SM OVC008
     FM310200 32014G25KT 3SM -SN OVC008=

USA.gov is the U.S. government's official web portal to all federal, state and local government web resources and services.